createdAt,value
2017-06-24T00:01:20.459Z,57.80
2017-06-24T00:03:47.959Z,58.10
2017-06-24T00:06:15.477Z,58.00
2017-06-24T00:08:44.000Z,58.40
2017-06-24T00:11:11.521Z,58.60
2017-06-24T00:13:39.030Z,58.40
2017-06-24T00:16:06.566Z,58.70
2017-06-24T00:18:34.085Z,58.50
2017-06-24T00:21:01.603Z,58.50
2017-06-24T00:23:29.089Z,58.60
2017-06-24T00:25:57.385Z,59.30
2017-06-24T00:28:24.872Z,59.90
2017-06-24T00:30:52.381Z,59.20
2017-06-24T00:33:20.644Z,59.50
2017-06-24T00:35:48.170Z,59.50
2017-06-24T00:38:15.666Z,59.60
2017-06-24T00:40:43.188Z,59.50
2017-06-24T00:43:10.673Z,59.10
2017-06-24T00:45:38.183Z,59.40
2017-06-24T00:48:05.684Z,59.60
2017-06-24T00:50:33.195Z,59.20
2017-06-24T00:53:00.696Z,59.30
2017-06-24T00:55:28.214Z,59.10
2017-06-24T00:57:55.724Z,59.00
2017-06-24T01:00:23.256Z,58.80
2017-06-24T01:02:50.748Z,58.50
2017-06-24T01:05:18.270Z,58.40
2017-06-24T01:07:45.788Z,58.20
2017-06-24T01:10:14.065Z,58.30
2017-06-24T01:12:41.556Z,58.20
2017-06-24T01:15:09.064Z,58.60
2017-06-24T01:17:36.556Z,58.70
2017-06-24T01:20:04.068Z,58.50
2017-06-24T01:22:31.570Z,59.30
2017-06-24T01:24:59.084Z,58.40
2017-06-24T01:27:26.571Z,58.60
2017-06-24T01:29:54.843Z,59.60
2017-06-24T01:32:22.327Z,59.20
2017-06-24T01:34:49.836Z,59.00
2017-06-24T01:37:17.323Z,59.00
2017-06-24T01:39:44.845Z,58.80
2017-06-24T01:42:12.332Z,59.10
2017-06-24T01:44:39.871Z,58.80
2017-06-24T01:47:07.364Z,59.20
2017-06-24T01:49:35.642Z,59.20
2017-06-24T01:52:03.904Z,59.50
2017-06-24T01:54:31.412Z,59.40
2017-06-24T01:56:58.899Z,59.30
2017-06-24T01:59:26.407Z,59.30
2017-06-24T02:01:53.900Z,58.90
2017-06-24T02:04:21.452Z,59.30
2017-06-24T02:06:48.940Z,59.30
2017-06-24T02:09:16.451Z,59.30
2017-06-24T02:11:43.935Z,59.50
2017-06-24T02:14:11.451Z,59.10
2017-06-24T02:16:39.704Z,60.00
2017-06-24T02:19:07.211Z,59.30
2017-06-24T02:21:34.701Z,59.30
2017-06-24T02:24:02.207Z,59.50
2017-06-24T02:26:30.456Z,59.40
2017-06-24T02:28:57.963Z,59.30
2017-06-24T02:31:25.455Z,60.30
2017-06-24T02:33:52.972Z,59.80
2017-06-24T02:36:21.232Z,59.70
2017-06-24T02:38:49.516Z,59.90
2017-06-24T02:41:17.783Z,59.50
2017-06-24T02:43:45.267Z,59.50
2017-06-24T02:46:12.790Z,59.60
2017-06-24T02:48:40.280Z,59.40
2017-06-24T02:51:08.560Z,59.40
2017-06-24T02:53:36.808Z,59.70
2017-06-24T02:56:04.313Z,59.60
2017-06-24T02:58:31.807Z,59.30
2017-06-24T03:00:59.333Z,59.30
2017-06-24T03:03:26.828Z,59.50
2017-06-24T03:05:54.339Z,59.90
2017-06-24T03:08:21.844Z,59.70
2017-06-24T03:10:49.364Z,59.50
2017-06-24T03:13:16.868Z,59.40
2017-06-24T03:15:44.379Z,59.00
2017-06-24T03:18:11.880Z,59.20
2017-06-24T03:20:39.415Z,58.90
2017-06-24T03:23:06.921Z,59.00
2017-06-24T03:25:34.432Z,59.00
2017-06-24T03:28:01.919Z,58.90
2017-06-24T03:30:29.428Z,59.00
2017-06-24T03:32:56.911Z,58.80
2017-06-24T03:35:24.429Z,58.60
2017-06-24T03:37:52.688Z,58.60
2017-06-24T03:40:20.205Z,58.50
2017-06-24T03:42:47.732Z,58.40
2017-06-24T03:45:16.020Z,58.50
2017-06-24T03:47:43.529Z,58.40
2017-06-24T03:50:11.040Z,58.50
2017-06-24T03:52:38.535Z,58.70
2017-06-24T03:55:06.035Z,58.60
2017-06-24T03:57:33.549Z,58.90
2017-06-24T04:00:01.072Z,58.90
2017-06-24T04:02:28.596Z,59.10
2017-06-24T04:04:56.104Z,59.10
2017-06-24T04:07:23.589Z,58.70
2017-06-24T04:09:51.091Z,58.80
2017-06-24T04:12:19.340Z,58.80
2017-06-24T04:14:46.844Z,58.40
2017-06-24T04:17:15.092Z,58.80
2017-06-24T04:19:42.609Z,58.70
2017-06-24T04:22:10.100Z,58.30
2017-06-24T04:24:37.632Z,58.50
2017-06-24T04:27:05.122Z,58.60
2017-06-24T04:29:32.628Z,58.10
2017-06-24T04:32:00.139Z,58.00
2017-06-24T04:34:27.676Z,58.20
2017-06-24T04:36:55.186Z,58.20
2017-06-24T04:39:23.462Z,58.80
2017-06-24T04:41:50.963Z,58.70
2017-06-24T04:44:18.486Z,58.40
2017-06-24T04:46:46.767Z,57.80
2017-06-24T04:49:14.279Z,57.70
2017-06-24T04:51:41.768Z,57.90
2017-06-24T04:54:10.046Z,57.80
2017-06-24T04:56:37.536Z,57.70
2017-06-24T04:59:05.039Z,57.40
2017-06-24T05:01:32.524Z,56.50
2017-06-24T05:04:00.803Z,56.90
2017-06-24T05:06:29.056Z,56.70
2017-06-24T05:08:56.577Z,56.60
2017-06-24T05:11:24.085Z,56.80
2017-06-24T05:13:51.601Z,56.00
2017-06-24T05:16:19.089Z,56.80
2017-06-24T05:18:46.602Z,56.00
2017-06-24T05:21:14.096Z,56.00
2017-06-24T05:23:41.603Z,55.50
2017-06-24T05:26:09.860Z,52.80
2017-06-24T05:28:37.365Z,52.70
2017-06-24T05:31:04.845Z,50.70
2017-06-24T05:33:32.353Z,48.90
2017-06-24T05:36:00.607Z,45.00
2017-06-24T05:38:28.116Z,44.90
2017-06-24T05:40:55.599Z,43.40
2017-06-24T05:43:23.108Z,41.20
2017-06-24T05:45:51.584Z,39.30
2017-06-24T05:48:19.091Z,39.20
2017-06-24T05:50:46.596Z,38.90
2017-06-24T05:53:14.105Z,38.60
2017-06-24T05:55:41.595Z,38.30
2017-06-24T05:58:09.119Z,39.00
2017-06-24T06:00:37.551Z,39.70
2017-06-24T06:03:05.060Z,42.00
2017-06-24T06:05:32.552Z,42.80
2017-06-24T06:08:00.057Z,43.90
2017-06-24T06:10:27.549Z,43.90
2017-06-24T06:12:55.080Z,45.60
2017-06-24T06:15:22.567Z,46.40
2017-06-24T06:17:50.082Z,47.30
2017-06-24T06:20:17.572Z,48.70
2017-06-24T06:22:45.071Z,47.50
2017-06-24T06:25:12.563Z,47.40
2017-06-24T06:27:40.883Z,44.30
2017-06-24T06:30:08.371Z,44.20
2017-06-24T06:32:35.872Z,42.50
2017-06-24T06:35:03.359Z,40.60
2017-06-24T06:37:30.907Z,40.30
2017-06-24T06:39:58.392Z,39.10
2017-06-24T06:42:25.904Z,39.90
2017-06-24T06:44:53.397Z,42.30
2017-06-24T06:47:20.916Z,42.60
2017-06-24T06:49:49.177Z,43.70
2017-06-24T06:52:17.460Z,44.40
2017-06-24T06:54:45.765Z,44.10
2017-06-24T06:57:13.273Z,44.00
2017-06-24T06:59:40.776Z,44.60
2017-06-24T07:02:08.279Z,44.90
2017-06-24T07:04:35.788Z,45.20
2017-06-24T07:07:04.060Z,45.70
2017-06-24T07:09:32.313Z,45.90
2017-06-24T07:11:59.831Z,45.70
2017-06-24T07:14:27.319Z,46.60
2017-06-24T07:16:54.827Z,46.10
2017-06-24T07:19:22.315Z,45.80
2017-06-24T07:21:49.823Z,45.90
2017-06-24T07:24:18.075Z,46.60
2017-06-24T07:26:45.584Z,46.10
2017-06-24T07:29:13.083Z,46.00
2017-06-24T07:31:40.568Z,46.40
2017-06-24T07:34:08.081Z,45.90
2017-06-24T07:36:35.580Z,45.90
2017-06-24T07:39:03.099Z,45.80
2017-06-24T07:41:30.599Z,46.40
2017-06-24T07:43:58.120Z,45.30
2017-06-24T07:46:25.616Z,45.30
2017-06-24T07:48:53.123Z,46.80
2017-06-24T07:51:20.675Z,46.80
2017-06-24T07:53:48.188Z,45.80
2017-06-24T07:56:15.671Z,45.60
2017-06-24T07:58:43.951Z,47.00
2017-06-24T08:01:12.215Z,47.50
2017-06-24T08:03:39.735Z,48.00
2017-06-24T08:06:07.219Z,47.00
2017-06-24T08:08:34.727Z,47.30
2017-06-24T08:11:02.213Z,47.50
2017-06-24T08:13:29.716Z,46.60
2017-06-24T08:15:57.972Z,47.10
2017-06-24T08:18:25.487Z,46.60
2017-06-24T08:20:53.006Z,45.90
2017-06-24T08:23:20.513Z,45.50
2017-06-24T08:25:48.013Z,45.10
2017-06-24T08:28:15.519Z,45.50
2017-06-24T08:30:43.000Z,45.60
2017-06-24T08:33:10.507Z,46.80
2017-06-24T08:35:37.999Z,47.10
2017-06-24T08:38:05.507Z,47.20
2017-06-24T08:40:33.096Z,46.80
2017-06-24T08:43:00.612Z,46.80
2017-06-24T08:45:28.100Z,45.70
2017-06-24T08:47:55.637Z,46.10
2017-06-24T08:50:23.162Z,46.10
2017-06-24T08:52:50.709Z,45.30
2017-06-24T08:55:18.203Z,46.30
2017-06-24T08:57:45.713Z,46.80
2017-06-24T09:00:13.964Z,44.90
2017-06-24T09:02:41.500Z,44.80
2017-06-24T09:05:09.005Z,45.60
2017-06-24T09:07:37.285Z,45.60
2017-06-24T09:10:05.545Z,45.30
2017-06-24T09:12:33.051Z,45.20
2017-06-24T09:15:00.617Z,46.20
2017-06-24T09:17:28.124Z,45.70
2017-06-24T09:19:55.623Z,45.80
2017-06-24T09:22:23.130Z,45.60
2017-06-24T09:24:50.674Z,45.20
2017-06-24T09:27:18.180Z,46.00
2017-06-24T09:29:46.452Z,45.40
2017-06-24T09:32:13.986Z,45.30
2017-06-24T09:34:41.472Z,45.80
2017-06-24T09:37:09.749Z,46.70
2017-06-24T09:39:37.263Z,46.10
2017-06-24T09:42:04.781Z,45.70
2017-06-24T09:44:32.275Z,46.50
2017-06-24T09:47:00.138Z,46.20
2017-06-24T09:49:27.632Z,46.50
2017-06-24T09:51:55.152Z,46.50
2017-06-24T09:54:22.654Z,46.50
2017-06-24T09:56:50.171Z,46.30
2017-06-24T09:59:17.659Z,45.80
2017-06-24T10:01:51.244Z,46.10
2017-06-24T10:04:18.728Z,46.40
2017-06-24T10:06:46.340Z,47.20
2017-06-24T10:09:13.838Z,45.70
2017-06-24T10:11:41.365Z,46.20
2017-06-24T10:14:21.497Z,45.90
2017-06-24T10:16:52.485Z,46.10
2017-06-24T10:19:19.980Z,45.90
2017-06-24T10:21:48.300Z,44.70
2017-06-24T10:24:15.787Z,44.60
2017-06-24T10:26:43.297Z,45.90
2017-06-24T10:29:10.785Z,46.10
2017-06-24T10:31:38.297Z,45.40
2017-06-24T10:34:05.795Z,45.60
2017-06-24T10:36:33.317Z,45.90
2017-06-24T10:39:01.569Z,46.10
2017-06-24T10:41:29.080Z,46.00
2017-06-24T10:43:56.709Z,44.40
2017-06-24T10:46:24.266Z,44.50
2017-06-24T10:48:51.783Z,44.10
2017-06-24T10:51:19.567Z,44.60
2017-06-24T10:53:47.112Z,44.40
2017-06-24T10:56:14.615Z,45.00
2017-06-24T10:58:42.103Z,44.40
2017-06-24T11:01:09.616Z,44.80
2017-06-24T11:03:37.107Z,43.70
2017-06-24T11:06:05.389Z,43.90
2017-06-24T11:08:32.881Z,43.80
2017-06-24T11:11:00.395Z,44.80
2017-06-24T11:13:27.913Z,44.50
2017-06-24T11:15:55.427Z,44.30
2017-06-24T11:18:22.920Z,44.50
2017-06-24T11:20:50.424Z,44.10
2017-06-24T11:23:17.907Z,45.40
2017-06-24T11:25:45.411Z,44.20
2017-06-24T11:28:12.895Z,43.90
2017-06-24T11:30:40.403Z,43.70
2017-06-24T11:33:07.892Z,42.40
2017-06-24T11:35:35.400Z,43.90
2017-06-24T11:38:02.897Z,43.50
2017-06-24T11:40:30.404Z,43.40
2017-06-24T11:42:58.663Z,44.00
2017-06-24T11:45:26.211Z,44.00
2017-06-24T11:47:53.700Z,43.70
2017-06-24T11:50:21.989Z,44.30
2017-06-24T11:52:49.493Z,44.20
2017-06-24T11:55:16.997Z,44.00
2017-06-24T11:57:45.260Z,43.40
2017-06-24T12:00:12.790Z,43.40
2017-06-24T12:02:40.287Z,43.30
2017-06-24T12:05:07.805Z,43.30
2017-06-24T12:07:35.312Z,44.10
2017-06-24T12:10:03.592Z,43.80
2017-06-24T12:12:31.855Z,43.50
2017-06-24T12:14:59.355Z,43.40
2017-06-24T12:17:26.845Z,43.50
2017-06-24T12:19:54.365Z,43.60
2017-06-24T12:22:21.860Z,43.70
2017-06-24T12:24:49.375Z,43.20
2017-06-24T12:27:16.887Z,42.80
2017-06-24T12:29:44.391Z,42.40
2017-06-24T12:32:11.884Z,43.00
2017-06-24T12:34:39.403Z,43.80
2017-06-24T12:37:07.666Z,42.60
2017-06-24T12:39:35.172Z,42.50
2017-06-24T12:42:02.663Z,42.80
2017-06-24T12:44:30.172Z,42.70
2017-06-24T12:46:57.667Z,42.10
2017-06-24T12:49:25.182Z,42.60
2017-06-24T12:51:52.675Z,42.40
2017-06-24T12:54:20.171Z,42.50
2017-06-24T12:56:47.664Z,42.80
2017-06-24T12:59:15.180Z,42.60
2017-06-24T13:01:42.658Z,42.40
2017-06-24T13:04:10.942Z,42.80
2017-06-24T13:06:38.427Z,42.70
2017-06-24T13:09:05.946Z,42.90
2017-06-24T13:11:33.438Z,42.20
2017-06-24T13:14:00.957Z,42.50
2017-06-24T13:16:28.492Z,40.90
2017-06-24T13:18:56.002Z,41.60
2017-06-24T13:21:24.255Z,43.00
2017-06-24T13:23:51.746Z,42.90
2017-06-24T13:26:19.260Z,43.00
2017-06-24T13:28:46.739Z,43.30
2017-06-24T13:31:14.250Z,42.10
2017-06-24T13:33:41.736Z,41.00
2017-06-24T13:36:09.244Z,41.50
2017-06-24T13:38:36.783Z,40.90
2017-06-24T13:41:05.057Z,39.30
2017-06-24T13:43:32.539Z,38.90
2017-06-24T13:46:00.052Z,39.40
2017-06-24T13:48:27.609Z,39.30
2017-06-24T13:50:55.115Z,39.10
2017-06-24T13:53:23.376Z,40.00
2017-06-24T13:55:51.695Z,40.20
2017-06-24T13:58:19.184Z,40.10
2017-06-24T14:00:46.684Z,39.70
2017-06-24T14:03:14.942Z,38.20
2017-06-24T14:05:42.457Z,38.10
2017-06-24T14:08:09.956Z,38.00
2017-06-24T14:10:37.474Z,38.90
2017-06-24T14:13:04.968Z,38.90
2017-06-24T14:15:32.482Z,39.20
2017-06-24T14:17:59.975Z,38.70
2017-06-24T14:20:27.562Z,39.30
2017-06-24T14:22:55.041Z,39.10
2017-06-24T14:25:22.548Z,39.30
2017-06-24T14:27:50.036Z,39.60
2017-06-24T14:30:17.546Z,38.20
2017-06-24T14:32:45.041Z,38.70
2017-06-24T14:35:12.548Z,37.70
2017-06-24T14:37:40.041Z,39.10
2017-06-24T14:40:07.560Z,38.20
2017-06-24T14:42:35.058Z,37.10
2017-06-24T14:45:02.555Z,37.30
2017-06-24T14:47:30.811Z,38.10
2017-06-24T14:49:58.315Z,37.30
2017-06-24T14:52:25.808Z,37.40
2017-06-24T14:54:53.311Z,37.90
2017-06-24T14:57:20.818Z,37.00
2017-06-24T14:59:48.324Z,37.20
2017-06-24T15:02:15.807Z,35.90
2017-06-24T15:04:43.355Z,37.20
2017-06-24T15:07:11.722Z,37.40
2017-06-24T15:09:39.233Z,37.90
2017-06-24T15:12:06.719Z,39.50
2017-06-24T15:14:34.215Z,40.30
2017-06-24T15:17:01.703Z,40.40
2017-06-24T15:19:29.207Z,41.10
2017-06-24T15:21:56.692Z,41.40
2017-06-24T15:24:24.215Z,41.70
2017-06-24T15:26:51.695Z,41.40
2017-06-24T15:29:19.208Z,41.90
2017-06-24T15:31:46.692Z,42.10
2017-06-24T15:34:14.195Z,42.90
2017-06-24T15:36:41.683Z,42.80
2017-06-24T15:39:09.184Z,43.00
2017-06-24T15:41:36.672Z,42.20
2017-06-24T15:44:04.173Z,42.20
2017-06-24T15:46:31.660Z,42.40
2017-06-24T15:48:59.164Z,43.20
2017-06-24T15:51:26.654Z,43.90
2017-06-24T15:53:54.167Z,43.70
2017-06-24T15:56:21.661Z,43.40
2017-06-24T15:58:49.171Z,43.80
2017-06-24T16:01:17.440Z,44.70
2017-06-24T16:03:44.940Z,44.70
2017-06-24T16:06:12.712Z,44.50
2017-06-24T16:08:40.216Z,44.60
2017-06-24T16:11:07.708Z,44.50
2017-06-24T16:13:35.211Z,45.10
2017-06-24T16:16:02.692Z,44.90
2017-06-24T16:18:30.204Z,44.70
2017-06-24T16:20:57.683Z,44.30
2017-06-24T16:23:25.191Z,44.70
2017-06-24T16:25:53.443Z,43.90
2017-06-24T16:28:20.955Z,43.80
2017-06-24T16:30:49.980Z,43.50
2017-06-24T16:33:17.500Z,44.00
2017-06-24T16:35:45.004Z,43.30
2017-06-24T16:38:12.507Z,43.00
2017-06-24T16:40:39.992Z,43.70
2017-06-24T16:43:07.496Z,43.60
2017-06-24T16:45:36.067Z,43.50
2017-06-24T16:48:04.365Z,43.00
2017-06-24T16:50:32.620Z,44.40
2017-06-24T16:53:00.692Z,43.60
2017-06-24T16:55:28.190Z,44.40
2017-06-24T16:57:56.465Z,43.70
2017-06-24T17:00:23.951Z,43.50
2017-06-24T17:02:51.448Z,43.70
2017-06-24T17:05:18.931Z,43.90
2017-06-24T17:07:47.203Z,45.00
2017-06-24T17:10:14.696Z,44.40
2017-06-24T17:12:42.205Z,44.00
2017-06-24T17:15:09.689Z,45.30
2017-06-24T17:17:37.878Z,44.90
2017-06-24T17:20:05.360Z,44.80
2017-06-24T17:22:32.869Z,44.10
2017-06-24T17:25:00.359Z,44.20
2017-06-24T17:27:27.868Z,44.10
2017-06-24T17:29:55.356Z,44.40
2017-06-24T17:32:23.635Z,45.00
2017-06-24T17:34:51.883Z,44.90
2017-06-24T17:37:19.390Z,44.80
2017-06-24T17:39:46.871Z,44.90
2017-06-24T17:42:14.373Z,45.10
2017-06-24T17:44:41.859Z,45.70
2017-06-24T17:47:09.364Z,45.70
2017-06-24T17:49:36.844Z,46.10
2017-06-24T17:52:04.348Z,46.10
2017-06-24T17:54:31.831Z,46.50
2017-06-24T17:56:59.328Z,46.10
2017-06-24T17:59:26.813Z,45.80
2017-06-24T18:01:54.323Z,46.60
2017-06-24T18:04:21.804Z,46.80
2017-06-24T18:06:49.324Z,46.70
2017-06-24T18:09:16.803Z,46.90
2017-06-24T18:11:44.349Z,47.10
2017-06-24T18:14:11.833Z,47.10
2017-06-24T18:16:39.345Z,47.40
2017-06-24T18:19:06.832Z,48.00
2017-06-24T18:21:34.338Z,47.70
2017-06-24T18:24:02.596Z,47.80
2017-06-24T18:26:30.875Z,48.10
2017-06-24T18:28:58.361Z,48.00
2017-06-24T18:31:25.867Z,48.00
2017-06-24T18:33:54.067Z,48.20
2017-06-24T18:36:21.576Z,48.20
2017-06-24T18:38:49.075Z,48.20
2017-06-24T18:41:16.588Z,48.50
2017-06-24T18:43:44.076Z,49.10
2017-06-24T18:46:11.845Z,48.80
2017-06-24T18:48:39.343Z,49.10
2017-06-24T18:51:07.614Z,49.50
2017-06-24T18:53:35.129Z,49.40
2017-06-24T18:56:02.611Z,49.50
2017-06-24T18:58:30.127Z,49.60
2017-06-24T19:00:57.616Z,50.10
2017-06-24T19:03:25.128Z,50.00
2017-06-24T19:06:31.273Z,50.00
2017-06-24T19:08:59.531Z,50.10
2017-06-24T19:11:27.035Z,50.00
2017-06-24T19:13:54.549Z,49.90
2017-06-24T19:16:22.035Z,50.40
2017-06-24T19:18:50.311Z,50.40
2017-06-24T19:21:18.560Z,50.70
2017-06-24T19:23:46.067Z,50.60
2017-06-24T19:26:13.566Z,50.60
2017-06-24T19:28:41.088Z,50.80
2017-06-24T19:31:08.579Z,50.90
2017-06-24T19:33:36.097Z,51.00
2017-06-24T19:36:03.584Z,51.40
2017-06-24T19:38:31.103Z,51.20
2017-06-24T19:40:59.379Z,51.00
2017-06-24T19:43:27.675Z,51.60
2017-06-24T19:45:55.170Z,51.50
2017-06-24T19:48:23.697Z,51.60
2017-06-24T19:50:51.218Z,51.60
2017-06-24T19:53:18.744Z,51.40
2017-06-24T19:55:46.293Z,51.70
2017-06-24T19:58:13.832Z,52.20
2017-06-24T20:00:42.100Z,51.90
2017-06-24T20:03:09.616Z,51.90
2017-06-24T20:05:37.108Z,52.30
2017-06-24T20:08:04.630Z,52.40
2017-06-24T20:10:32.123Z,52.20
2017-06-24T20:12:59.635Z,52.00
2017-06-24T20:15:27.124Z,51.90
2017-06-24T20:17:54.645Z,51.90
2017-06-24T20:20:22.140Z,51.70
2017-06-24T20:22:49.651Z,51.60
2017-06-24T20:25:17.911Z,52.10
2017-06-24T20:27:45.420Z,52.00
2017-06-24T20:30:12.920Z,52.00
2017-06-24T20:32:40.439Z,51.80
2017-06-24T20:35:07.936Z,51.70
2017-06-24T20:37:35.443Z,51.80
2017-06-24T20:40:02.931Z,52.00
2017-06-24T20:42:30.439Z,51.90
2017-06-24T20:44:57.948Z,52.10
2017-06-24T20:47:25.464Z,52.30
2017-06-24T20:49:53.733Z,52.60
2017-06-24T20:52:22.035Z,52.40
2017-06-24T20:54:49.528Z,52.40
2017-06-24T20:57:17.036Z,52.40
2017-06-24T20:59:44.524Z,52.40
2017-06-24T21:02:12.047Z,52.70
2017-06-24T21:04:39.555Z,52.60
2017-06-24T21:07:07.288Z,52.70
2017-06-24T21:09:34.779Z,52.70
2017-06-24T21:12:02.293Z,52.30
2017-06-24T21:14:29.799Z,52.60
2017-06-24T21:16:57.323Z,53.60
2017-06-24T21:19:25.591Z,53.10
2017-06-24T21:21:53.873Z,53.00
2017-06-24T21:24:22.183Z,53.30
2017-06-24T21:26:49.705Z,53.20
2017-06-24T21:29:17.971Z,53.60
2017-06-24T21:31:46.269Z,54.70
2017-06-24T21:34:13.769Z,53.90
2017-06-24T21:36:41.281Z,53.80
2017-06-24T21:39:09.548Z,53.50
2017-06-24T21:41:37.059Z,53.40
2017-06-24T21:44:04.552Z,53.20
2017-06-24T21:46:32.063Z,54.10
2017-06-24T21:48:59.568Z,53.60
2017-06-24T21:51:27.100Z,53.90
2017-06-24T21:53:54.616Z,54.70
2017-06-24T21:56:22.907Z,54.10
2017-06-24T21:58:50.399Z,54.00
2017-06-24T22:01:17.942Z,53.90
2017-06-24T22:03:45.441Z,53.80
2017-06-24T22:06:12.968Z,53.90
2017-06-24T22:08:40.466Z,54.00
2017-06-24T22:11:07.996Z,54.10
2017-06-24T22:13:35.488Z,54.30
2017-06-24T22:16:03.035Z,54.60
2017-06-24T22:18:30.548Z,54.50
2017-06-24T22:20:58.073Z,54.70
2017-06-24T22:23:25.577Z,54.60
2017-06-24T22:25:53.105Z,55.00
2017-06-24T22:28:21.372Z,55.10
2017-06-24T22:30:48.897Z,55.00
2017-06-24T22:33:16.400Z,55.00
2017-06-24T22:35:44.667Z,54.30
2017-06-24T22:38:12.159Z,54.20
2017-06-24T22:40:39.663Z,54.20
2017-06-24T22:43:07.155Z,54.40
2017-06-24T22:45:35.431Z,54.30
2017-06-24T22:48:03.691Z,53.30
2017-06-24T22:50:31.197Z,53.20
2017-06-24T22:52:58.680Z,53.60
2017-06-24T22:55:26.184Z,53.80
2017-06-24T22:57:54.436Z,52.80
2017-06-24T23:00:22.343Z,52.70
2017-06-24T23:02:49.837Z,53.10
2017-06-24T23:05:17.323Z,53.30
2017-06-24T23:07:44.832Z,53.60
2017-06-24T23:10:12.348Z,53.80
2017-06-24T23:12:40.139Z,53.60
2017-06-24T23:15:07.631Z,54.00
2017-06-24T23:17:35.146Z,53.40
2017-06-24T23:20:03.418Z,53.90
2017-06-24T23:22:30.909Z,53.70
2017-06-24T23:24:58.671Z,54.00
2017-06-24T23:27:26.168Z,53.50
2017-06-24T23:29:53.653Z,53.90
2017-06-24T23:32:21.178Z,53.70
2017-06-24T23:34:48.683Z,53.60
2017-06-24T23:37:16.470Z,53.20
2017-06-24T23:39:43.963Z,53.50
2017-06-24T23:42:11.676Z,53.60
2017-06-24T23:44:39.956Z,53.70
2017-06-24T23:47:07.444Z,53.60
2017-06-24T23:49:35.263Z,53.20
2017-06-24T23:52:02.770Z,53.40
2017-06-24T23:54:30.260Z,54.00
2017-06-24T23:56:57.780Z,54.20
2017-06-24T23:59:25.274Z,53.90
